Time;durP1;ratioP1;P1;durP2;ratioP2;P2;SDS_P1;SDS_P2;PMS_P1;PMS_P2;Temp;Humidity;BMP_temperature;BMP_pressure;BME280_temperature;BME280_humidity;BME280_pressure;Samples;Min_cycle;Max_cycle;Signal;HPM_P1;HPM_P2
2022/09/28 00:00:18;;;;;;;10.73;2.05;;;8.50;99.90;;;;;;5015658;28;20489;-64
2022/09/28 00:02:45;;;;;;;7.45;2.30;;;8.40;99.90;;;;;;5031248;28;20207;-64
2022/09/28 00:05:12;;;;;;;9.43;2.40;;;8.40;99.90;;;;;;5031743;28;20043;-64
2022/09/28 00:07:39;;;;;;;12.07;3.10;;;8.40;99.90;;;;;;5043763;28;20071;-64
2022/09/28 00:10:06;;;;;;;9.68;2.10;;;8.40;99.90;;;;;;5034289;28;20060;-64
2022/09/28 00:12:33;;;;;;;5.70;1.90;;;8.40;99.90;;;;;;5044176;28;20037;-64
2022/09/28 00:15:00;;;;;;;16.42;3.38;;;8.30;99.90;;;;;;5015397;28;20462;-65
2022/09/28 00:17:27;;;;;;;11.93;1.80;;;8.30;99.90;;;;;;5045077;28;20055;-64
2022/09/28 00:19:56;;;;;;;9.57;2.45;;;8.30;99.90;;;;;;5032899;28;20049;-64
2022/09/28 00:22:23;;;;;;;7.72;2.50;;;8.30;99.90;;;;;;5037610;28;20060;-64
2022/09/28 00:24:50;;;;;;;11.23;2.03;;;8.30;99.90;;;;;;5052147;28;20144;-64
2022/09/28 00:27:17;;;;;;;9.77;1.80;;;8.30;99.90;;;;;;5040588;28;20164;-64
2022/09/28 00:29:43;;;;;;;10.15;1.27;;;8.30;99.90;;;;;;5034342;28;20060;-64
2022/09/28 00:32:11;;;;;;;10.88;1.73;;;8.30;99.90;;;;;;5042575;28;20051;-64
2022/09/28 00:34:41;;;;;;;16.15;3.63;;;8.30;99.90;;;;;;5049461;28;20056;-64
2022/09/28 00:37:08;;;;;;;12.23;2.33;;;8.30;99.90;;;;;;5028029;28;20497;-64
2022/09/28 00:39:37;;;;;;;7.78;2.10;;;8.30;99.90;;;;;;5030272;28;20067;-64
2022/09/28 00:42:13;;;;;;;8.25;1.92;;;8.20;99.90;;;;;;5046568;28;20095;-64
2022/09/28 00:44:45;;;;;;;7.75;1.88;;;8.10;99.90;;;;;;5029672;28;20499;-63
2022/09/28 00:47:18;;;;;;;10.35;1.83;;;8.10;99.90;;;;;;5014293;28;20045;-64
2022/09/28 00:50:02;;;;;;;10.57;2.33;;;8.10;99.90;;;;;;5028445;28;20049;-64
2022/09/28 00:52:41;;;;;;;9.60;2.65;;;8.10;99.90;;;;;;5018027;28;20083;-64
2022/09/28 00:55:14;;;;;;;5.80;1.73;;;8.00;99.90;;;;;;5018924;28;20136;-64
2022/09/28 00:57:42;;;;;;;8.63;3.15;;;8.00;99.90;;;;;;5018551;28;20045;-64
2022/09/28 01:00:10;;;;;;;7.05;1.67;;;8.00;99.90;;;;;;5011505;28;20055;-64
2022/09/28 01:02:37;;;;;;;7.68;2.20;;;8.00;99.90;;;;;;5018371;28;20120;-64
2022/09/28 01:05:04;;;;;;;10.77;2.15;;;7.90;99.90;;;;;;5026345;28;20495;-64
2022/09/28 01:07:31;;;;;;;11.35;1.90;;;7.90;99.90;;;;;;5031291;28;20431;-63
2022/09/28 01:09:58;;;;;;;14.48;4.47;;;7.90;99.90;;;;;;5024372;28;20044;-64
2022/09/28 01:12:25;;;;;;;7.30;1.80;;;7.80;99.90;;;;;;5030792;28;20051;-64
2022/09/28 01:14:52;;;;;;;7.30;1.50;;;7.80;99.90;;;;;;5025542;28;20333;-64
2022/09/28 01:17:29;;;;;;;7.47;1.92;;;7.80;99.90;;;;;;5018697;28;20050;-64
2022/09/28 01:20:16;;;;;;;7.95;1.65;;;7.80;99.90;;;;;;5016055;28;20145;-64
2022/09/28 01:23:21;;;;;;;8.40;1.90;;;7.80;99.90;;;;;;5035013;28;20127;-64
2022/09/28 01:26:07;;;;;;;4.55;2.00;;;7.80;99.90;;;;;;5046597;28;20079;-64
2022/09/28 01:28:33;;;;;;;11.52;2.03;;;7.90;99.90;;;;;;5046082;28;20149;-64
2022/09/28 01:31:08;;;;;;;5.72;1.50;;;7.80;99.90;;;;;;5026676;28;20132;-65
2022/09/28 01:33:40;;;;;;;7.93;2.08;;;7.80;99.90;;;;;;4998769;28;20077;-64
2022/09/28 01:36:38;;;;;;;6.30;1.77;;;7.80;99.90;;;;;;5026626;28;20235;-63
2022/09/28 01:39:08;;;;;;;11.32;1.52;;;7.80;99.90;;;;;;5014753;28;20056;-63
2022/09/28 01:41:39;;;;;;;5.60;1.95;;;7.80;99.90;;;;;;5013021;28;20053;-64
2022/09/28 01:44:09;;;;;;;7.32;1.90;;;7.80;99.90;;;;;;5014424;28;20125;-63
2022/09/28 01:46:43;;;;;;;7.82;1.55;;;7.80;99.90;;;;;;5011537;28;20177;-63
2022/09/28 01:49:14;;;;;;;10.07;2.00;;;7.90;99.90;;;;;;5019985;28;20080;-63
2022/09/28 01:51:51;;;;;;;5.22;1.67;;;7.90;99.90;;;;;;5025587;28;20049;-64
2022/09/28 01:54:23;;;;;;;8.98;2.05;;;7.90;99.90;;;;;;5028082;28;20444;-64
2022/09/28 01:56:59;;;;;;;10.25;1.73;;;7.90;99.90;;;;;;5043288;28;20472;-64
2022/09/28 01:59:29;;;;;;;6.05;1.80;;;7.90;99.90;;;;;;5014938;28;20052;-64
2022/09/28 02:02:14;;;;;;;11.48;1.95;;;7.90;99.90;;;;;;5009686;28;20476;-64
2022/09/28 02:04:47;;;;;;;8.70;1.40;;;7.80;99.90;;;;;;5012562;28;20056;-63
2022/09/28 02:07:33;;;;;;;11.15;2.33;;;7.80;99.90;;;;;;5010548;28;20063;-64
2022/09/28 02:10:04;;;;;;;8.05;1.65;;;7.80;99.90;;;;;;5030562;28;20049;-64
2022/09/28 02:12:42;;;;;;;9.27;1.67;;;7.80;99.90;;;;;;5027583;28;20496;-64
2022/09/28 02:15:22;;;;;;;8.35;1.35;;;7.70;99.90;;;;;;5014010;28;20052;-64
2022/09/28 02:17:48;;;;;;;6.22;1.35;;;7.70;99.90;;;;;;5012345;28;20468;-64
2022/09/28 02:20:16;;;;;;;6.80;1.60;;;7.70;99.90;;;;;;5046912;28;20065;-63
2022/09/28 02:22:55;;;;;;;5.65;1.50;;;7.70;99.90;;;;;;5038218;28;20707;-63
2022/09/28 02:25:25;;;;;;;5.55;1.50;;;7.70;99.90;;;;;;5005348;28;20562;-64
2022/09/28 02:27:56;;;;;;;6.97;1.90;;;7.70;99.90;;;;;;5020461;28;20510;-64
2022/09/28 02:30:22;;;;;;;8.80;1.63;;;7.60;99.90;;;;;;5034280;28;20355;-64
2022/09/28 02:32:50;;;;;;;11.23;1.70;;;7.50;99.90;;;;;;5027520;28;20075;-64
2022/09/28 02:35:17;;;;;;;3.80;1.48;;;7.50;99.90;;;;;;5035141;28;20053;-63
2022/09/28 02:37:44;;;;;;;6.80;1.75;;;7.50;99.90;;;;;;5025706;28;20052;-63
2022/09/28 02:40:18;;;;;;;7.82;1.88;;;7.50;99.90;;;;;;5052996;28;20061;-64
2022/09/28 02:42:50;;;;;;;8.30;2.17;;;7.50;99.90;;;;;;5042953;28;20040;-63
2022/09/28 02:45:25;;;;;;;10.25;2.00;;;7.50;99.90;;;;;;5035820;28;20049;-63
2022/09/28 02:48:02;;;;;;;10.57;2.10;;;7.50;99.90;;;;;;5043265;28;20102;-63
2022/09/28 02:50:36;;;;;;;4.05;1.63;;;7.50;99.90;;;;;;5018886;28;20136;-64
2022/09/28 02:53:09;;;;;;;8.57;1.90;;;7.50;99.90;;;;;;5020350;28;20067;-64
2022/09/28 02:55:38;;;;;;;7.97;1.70;;;7.50;99.90;;;;;;5052417;28;20135;-64
2022/09/28 02:58:17;;;;;;;11.98;1.95;;;7.50;99.90;;;;;;5042789;28;20055;-64
2022/09/28 03:01:08;;;;;;;18.20;1.88;;;7.50;99.90;;;;;;5035114;28;20128;-63
2022/09/28 03:03:54;;;;;;;4.47;1.48;;;7.50;99.90;;;;;;5030432;28;20052;-64
2022/09/28 03:06:52;;;;;;;3.47;1.58;;;7.40;99.90;;;;;;5036045;28;20563;-64
2022/09/28 03:09:22;;;;;;;6.72;1.33;;;7.40;99.90;;;;;;5025653;28;20108;-64
2022/09/28 03:11:54;;;;;;;9.30;2.53;;;7.30;99.90;;;;;;5031971;28;20041;-64
2022/09/28 03:14:21;;;;;;;5.80;1.73;;;7.40;99.90;;;;;;5024795;28;20248;-63
2022/09/28 03:16:48;;;;;;;5.20;1.73;;;7.30;99.90;;;;;;5020434;28;20047;-64
2022/09/28 03:19:15;;;;;;;4.82;1.58;;;7.30;99.90;;;;;;5022100;28;20056;-63
2022/09/28 03:21:42;;;;;;;7.07;1.77;;;7.30;99.90;;;;;;5034469;28;20551;-63
2022/09/28 03:24:09;;;;;;;10.88;2.25;;;7.30;99.90;;;;;;5041800;28;20063;-64
2022/09/28 03:26:37;;;;;;;6.28;2.55;;;7.20;99.90;;;;;;5052126;28;20049;-63
2022/09/28 03:29:04;;;;;;;9.95;1.77;;;7.10;99.90;;;;;;5042247;28;20132;-64
2022/09/28 03:31:31;;;;;;;12.10;1.55;;;7.10;99.90;;;;;;5053422;28;20136;-64
2022/09/28 03:33:58;;;;;;;9.55;1.73;;;7.10;99.90;;;;;;5040399;28;20041;-64
2022/09/28 03:36:25;;;;;;;6.90;1.52;;;7.10;99.90;;;;;;5053411;28;20045;-64
2022/09/28 03:38:54;;;;;;;8.18;1.63;;;7.10;99.90;;;;;;5040521;28;20409;-64
2022/09/28 03:41:22;;;;;;;6.68;2.00;;;7.10;99.90;;;;;;5053241;28;20074;-64
2022/09/28 03:43:49;;;;;;;12.77;1.80;;;7.10;99.90;;;;;;5051258;28;20136;-63
2022/09/28 03:46:16;;;;;;;6.75;1.38;;;7.10;99.90;;;;;;5034215;28;20049;-63
2022/09/28 03:48:43;;;;;;;11.20;3.58;;;7.20;99.90;;;;;;5024664;28;20048;-64
2022/09/28 03:51:10;;;;;;;10.55;2.03;;;7.10;99.90;;;;;;5036234;28;20052;-63
2022/09/28 03:53:36;;;;;;;6.00;1.77;;;7.20;99.90;;;;;;5019466;28;20049;-64
2022/09/28 03:56:04;;;;;;;9.57;2.03;;;7.20;99.90;;;;;;5047626;28;20045;-63
2022/09/28 03:58:31;;;;;;;5.85;1.33;;;7.10;99.90;;;;;;5045180;28;20041;-66
2022/09/28 04:01:05;;;;;;;10.05;1.70;;;7.10;99.90;;;;;;5045469;28;20041;-63
2022/09/28 04:03:32;;;;;;;;;;;7.00;99.90;;;;;;5015867;28;20060;-63
2022/09/28 04:05:58;;;;;;;9.48;1.70;;;6.90;99.90;;;;;;5052505;28;20015;-64
2022/09/28 04:08:25;;;;;;;8.25;2.55;;;6.90;99.90;;;;;;5030706;28;20053;-64
2022/09/28 04:10:55;;;;;;;12.82;2.95;;;6.80;99.90;;;;;;5041474;28;20056;-64
2022/09/28 04:13:22;;;;;;;7.38;2.35;;;6.80;99.90;;;;;;5050389;28;20476;-64
2022/09/28 04:15:53;;;;;;;9.65;2.45;;;6.70;99.90;;;;;;5043891;28;20041;-63
2022/09/28 04:18:20;;;;;;;5.93;1.63;;;6.70;99.90;;;;;;5016496;28;20416;-63
2022/09/28 04:20:47;;;;;;;12.30;2.95;;;6.70;99.90;;;;;;5015280;28;20064;-64
2022/09/28 04:23:16;;;;;;;9.07;3.70;;;6.80;99.90;;;;;;5052115;28;20056;-63
2022/09/28 04:25:46;;;;;;;6.53;1.52;;;6.80;99.90;;;;;;5039873;28;20053;-63
2022/09/28 04:30:58;;;;;;;10.43;1.73;;;6.70;99.90;;;;;;5029311;28;20050;-63
2022/09/28 04:33:25;;;;;;;8.25;1.85;;;6.70;99.90;;;;;;5032379;28;20131;-63
2022/09/28 04:35:52;;;;;;;9.23;2.15;;;6.70;99.90;;;;;;5020791;28;20050;-64
2022/09/28 04:38:19;;;;;;;8.52;1.80;;;6.70;99.90;;;;;;5052197;28;20049;-65
2022/09/28 04:41:06;;;;;;;14.40;2.10;;;6.70;99.90;;;;;;5039198;28;20052;-64
2022/09/28 04:43:33;;;;;;;15.45;1.85;;;6.80;99.90;;;;;;5034717;28;20045;-65
2022/09/28 04:46:00;;;;;;;10.90;1.70;;;6.70;99.90;;;;;;5021909;28;20496;-65
2022/09/28 04:48:27;;;;;;;13.65;1.60;;;6.80;99.90;;;;;;5014559;28;20093;-64
2022/09/28 04:50:55;;;;;;;9.82;2.55;;;6.70;99.90;;;;;;5018784;28;20053;-65
2022/09/28 04:53:22;;;;;;;9.55;1.50;;;6.70;99.90;;;;;;5032456;28;20045;-64
2022/09/28 04:55:59;;;;;;;5.30;1.50;;;6.70;99.90;;;;;;5026008;28;20045;-65
2022/09/28 04:58:26;;;;;;;9.25;2.33;;;6.70;99.90;;;;;;5031928;28;20448;-65
2022/09/28 05:00:55;;;;;;;5.15;1.92;;;6.70;99.90;;;;;;5050438;28;20054;-64
2022/09/28 05:03:22;;;;;;;8.05;1.90;;;6.70;99.90;;;;;;5014303;28;20045;-64
2022/09/28 05:05:49;;;;;;;7.55;1.75;;;6.70;99.90;;;;;;5035378;28;20042;-66
2022/09/28 05:08:17;;;;;;;17.13;2.08;;;6.70;99.90;;;;;;4999097;28;20136;-65
2022/09/28 05:10:44;;;;;;;6.30;1.98;;;6.70;99.90;;;;;;5044811;28;20048;-64
2022/09/28 05:13:11;;;;;;;18.73;3.55;;;6.70;99.90;;;;;;5022662;28;20047;-64
2022/09/28 05:15:39;;;;;;;11.82;2.30;;;6.70;99.90;;;;;;5034941;28;20064;-66
2022/09/28 05:18:06;;;;;;;14.50;3.05;;;6.60;99.90;;;;;;5065330;28;20052;-67
2022/09/28 05:20:33;;;;;;;9.45;3.08;;;6.70;99.90;;;;;;5059577;28;20075;-65
2022/09/28 05:23:00;;;;;;;6.60;1.80;;;6.70;99.90;;;;;;5030110;28;20067;-65
2022/09/28 05:25:26;;;;;;;14.73;2.83;;;6.60;99.90;;;;;;5052161;28;20145;-65
2022/09/28 05:27:55;;;;;;;8.43;2.15;;;6.60;99.90;;;;;;5041136;28;20052;-64
2022/09/28 05:30:22;;;;;;;11.00;2.63;;;6.60;99.90;;;;;;4990638;28;20137;-66
2022/09/28 05:32:49;;;;;;;15.30;2.42;;;6.60;99.90;;;;;;5029471;28;20089;-65
2022/09/28 05:35:16;;;;;;;14.88;2.08;;;6.60;99.90;;;;;;5058046;28;20098;-64
2022/09/28 05:37:43;;;;;;;18.10;3.80;;;6.50;99.90;;;;;;5026825;28;20041;-65
2022/09/28 05:40:10;;;;;;;11.25;2.17;;;6.60;99.90;;;;;;5018290;28;20049;-63
2022/09/28 05:42:37;;;;;;;9.85;3.33;;;6.50;99.90;;;;;;5026909;28;20083;-64
2022/09/28 05:45:05;;;;;;;17.40;2.23;;;6.50;99.90;;;;;;4685472;28;9999989;-62
2022/09/28 05:47:38;;;;;;;7.18;1.98;;;6.50;99.90;;;;;;5046579;28;20578;-62
2022/09/28 05:50:06;;;;;;;13.43;2.47;;;6.60;99.90;;;;;;5017294;28;20136;-62
2022/09/28 05:52:33;;;;;;;15.00;2.58;;;6.60;99.90;;;;;;5019598;28;20057;-64
2022/09/28 05:55:01;;;;;;;14.43;2.47;;;6.60;99.90;;;;;;5014390;28;20096;-65
2022/09/28 05:57:29;;;;;;;5.85;1.95;;;6.70;99.90;;;;;;5035611;28;20548;-65
2022/09/28 05:59:56;;;;;;;9.45;2.33;;;6.70;99.90;;;;;;5019709;28;20133;-64
2022/09/28 06:02:23;;;;;;;10.88;2.60;;;6.70;99.90;;;;;;5036425;28;21051;-65
2022/09/28 06:04:50;;;;;;;13.95;3.97;;;6.70;99.90;;;;;;5025704;28;20045;-65
2022/09/28 06:07:17;;;;;;;9.55;2.40;;;6.70;99.90;;;;;;5051023;28;20049;-64
2022/09/28 06:09:44;;;;;;;14.80;3.40;;;6.70;99.90;;;;;;5023200;28;20055;-64
2022/09/28 06:12:14;;;;;;;11.75;2.50;;;6.80;99.90;;;;;;5050295;28;20423;-64
2022/09/28 06:14:41;;;;;;;17.92;2.40;;;6.80;99.90;;;;;;5028118;28;20037;-65
2022/09/28 06:17:08;;;;;;;12.52;3.33;;;6.80;99.90;;;;;;5052054;28;20685;-65
2022/09/28 06:19:35;;;;;;;9.50;2.03;;;6.80;99.90;;;;;;5039720;28;20511;-65
2022/09/28 06:22:02;;;;;;;16.92;3.13;;;6.80;99.90;;;;;;5014665;28;20045;-66
2022/09/28 06:24:29;;;;;;;7.32;1.92;;;6.80;99.90;;;;;;5006793;28;20128;-65
2022/09/28 06:26:56;;;;;;;13.20;3.15;;;6.80;99.90;;;;;;5030655;28;20055;-64
2022/09/28 06:29:23;;;;;;;8.95;2.50;;;6.90;99.90;;;;;;5030074;28;20710;-63
2022/09/28 06:31:50;;;;;;;11.65;2.80;;;6.80;99.90;;;;;;5034157;28;20069;-65
2022/09/28 06:34:17;;;;;;;9.27;2.13;;;6.90;99.90;;;;;;5024276;28;20060;-65
2022/09/28 06:36:44;;;;;;;6.13;2.35;;;6.90;99.90;;;;;;5031873;28;20057;-64
2022/09/28 06:39:13;;;;;;;7.55;2.33;;;6.90;99.90;;;;;;5043541;28;20050;-65
2022/09/28 06:41:40;;;;;;;9.57;2.75;;;7.00;99.90;;;;;;5028596;28;20053;-66
2022/09/28 06:44:06;;;;;;;13.20;2.72;;;7.00;99.90;;;;;;5029777;28;20499;-65
2022/09/28 06:46:36;;;;;;;14.20;3.25;;;7.10;99.90;;;;;;5029944;28;20117;-66
2022/09/28 06:49:08;;;;;;;10.35;2.70;;;7.10;99.90;;;;;;5026928;28;20466;-66
2022/09/28 06:51:35;;;;;;;9.13;2.25;;;7.20;99.90;;;;;;5031515;28;20053;-67
2022/09/28 06:54:02;;;;;;;15.20;2.33;;;7.20;99.90;;;;;;5035507;28;20045;-66
2022/09/28 06:56:29;;;;;;;14.70;2.60;;;7.10;99.90;;;;;;5038390;28;20401;-65
2022/09/28 06:58:58;;;;;;;7.93;3.20;;;7.20;99.90;;;;;;5026846;28;20054;-67
2022/09/28 07:01:25;;;;;;;11.93;2.30;;;7.20;99.90;;;;;;5038439;28;20045;-66
2022/09/28 07:03:52;;;;;;;8.32;2.47;;;7.20;99.90;;;;;;5049374;28;20475;-64
2022/09/28 07:06:23;;;;;;;10.77;2.85;;;7.20;99.90;;;;;;5044238;28;20045;-64
2022/09/28 07:08:49;;;;;;;9.25;2.00;;;7.30;99.90;;;;;;5038805;28;20049;-66
2022/09/28 07:11:38;;;;;;;12.88;2.28;;;7.20;99.90;;;;;;5022562;28;20068;-64
2022/09/28 07:14:05;;;;;;;7.55;1.80;;;7.30;99.90;;;;;;5031969;28;20076;-65
2022/09/28 07:16:32;;;;;;;19.15;3.20;;;7.40;99.90;;;;;;5028757;28;20048;-65
2022/09/28 07:19:19;;;;;;;8.60;3.00;;;7.50;99.90;;;;;;5050315;28;20428;-66
2022/09/28 07:21:47;;;;;;;11.63;2.83;;;7.50;99.90;;;;;;5024718;28;20409;-64
2022/09/28 07:24:29;;;;;;;17.63;3.00;;;7.50;99.90;;;;;;5014786;28;20065;-64
2022/09/28 07:26:58;;;;;;;9.02;3.05;;;7.60;99.90;;;;;;5021805;28;20080;-66
2022/09/28 07:29:25;;;;;;;16.55;3.45;;;7.60;99.90;;;;;;5042374;28;20045;-66
2022/09/28 07:31:53;;;;;;;14.55;2.55;;;7.70;99.90;;;;;;5033253;28;20049;-67
2022/09/28 07:34:21;;;;;;;13.23;2.70;;;7.70;99.90;;;;;;5012412;28;20056;-67
2022/09/28 07:36:57;;;;;;;14.60;4.63;;;7.80;99.90;;;;;;5035458;28;20505;-67
2022/09/28 07:39:24;;;;;;;9.82;2.70;;;7.80;99.90;;;;;;5050228;28;20057;-65
2022/09/28 07:41:51;;;;;;;18.85;2.78;;;7.90;99.90;;;;;;5027132;28;20151;-67
2022/09/28 07:44:25;;;;;;;8.23;2.70;;;7.90;99.90;;;;;;5050375;28;20072;-65
2022/09/28 07:46:52;;;;;;;17.42;5.15;;;8.00;99.90;;;;;;5032651;28;20075;-64
2022/09/28 07:49:21;;;;;;;7.38;2.38;;;8.10;99.90;;;;;;5049357;28;20060;-64
2022/09/28 07:51:48;;;;;;;10.20;2.65;;;8.10;99.90;;;;;;5012270;28;20103;-63
2022/09/28 07:54:14;;;;;;;21.90;3.40;;;8.10;99.90;;;;;;5048563;28;20124;-64
2022/09/28 07:56:41;;;;;;;11.70;2.75;;;8.20;99.90;;;;;;5028451;28;20036;-64
2022/09/28 07:59:08;;;;;;;16.63;3.72;;;8.20;99.90;;;;;;5023849;28;20053;-64
2022/09/28 08:01:35;;;;;;;9.55;2.58;;;8.30;99.90;;;;;;5040641;28;20593;-64
2022/09/28 08:04:01;;;;;;;8.25;3.10;;;8.40;99.90;;;;;;5040760;28;20431;-64
2022/09/28 08:06:29;;;;;;;12.60;3.17;;;8.40;99.90;;;;;;5031550;28;20160;-64
2022/09/28 08:08:58;;;;;;;11.15;3.00;;;8.50;99.90;;;;;;5023098;28;20505;-65
2022/09/28 08:11:25;;;;;;;11.43;2.58;;;8.50;99.90;;;;;;5005601;28;20083;-65
2022/09/28 08:13:54;;;;;;;12.77;3.92;;;8.60;99.90;;;;;;5039685;28;20133;-65
2022/09/28 08:16:20;;;;;;;16.05;2.70;;;8.70;99.90;;;;;;5033236;28;20049;-66
2022/09/28 08:18:48;;;;;;;6.43;2.60;;;8.70;99.90;;;;;;5024602;28;20484;-65
2022/09/28 08:24:00;;;;;;;9.73;2.88;;;8.80;99.90;;;;;;5029637;28;20489;-66
2022/09/28 08:26:28;;;;;;;18.30;3.55;;;8.90;99.90;;;;;;5030906;28;20052;-65
2022/09/28 08:28:54;;;;;;;13.68;3.03;;;9.00;99.90;;;;;;5020997;28;20103;-65
2022/09/28 08:31:21;;;;;;;16.52;3.65;;;9.10;99.90;;;;;;5050818;28;20112;-65
2022/09/28 08:33:53;;;;;;;16.52;3.83;;;9.10;99.90;;;;;;5026965;28;20050;-65
2022/09/28 08:36:20;;;;;;;7.65;3.08;;;9.20;99.90;;;;;;5030185;28;20046;-65
2022/09/28 08:38:46;;;;;;;13.77;3.08;;;9.20;99.90;;;;;;5024756;28;20049;-65
2022/09/28 08:41:39;;;;;;;12.68;3.63;;;9.30;99.90;;;;;;5030361;28;20063;-65
2022/09/28 08:44:22;;;;;;;14.70;3.42;;;9.40;99.90;;;;;;5042318;28;20052;-66
2022/09/28 08:47:01;;;;;;;20.15;3.25;;;9.50;99.90;;;;;;4999032;28;20084;-66
2022/09/28 08:49:31;;;;;;;10.65;3.30;;;9.60;99.90;;;;;;5013121;28;20057;-65
2022/09/28 08:52:16;;;;;;;9.20;3.33;;;9.70;99.90;;;;;;4998699;28;20045;-66
2022/09/28 08:54:59;;;;;;;12.43;3.53;;;9.80;99.90;;;;;;5008142;28;20076;-66
2022/09/28 08:57:51;;;;;;;10.98;2.97;;;9.90;99.90;;;;;;5034528;28;20051;-65
2022/09/28 09:00:50;;;;;;;10.70;3.80;;;10.00;99.90;;;;;;5026832;28;20132;-65
2022/09/28 09:03:24;;;;;;;13.13;2.97;;;10.00;99.90;;;;;;5016971;28;20037;-65
2022/09/28 09:05:51;;;;;;;12.98;3.45;;;10.00;99.90;;;;;;5009857;28;20045;-65
2022/09/28 09:08:24;;;;;;;10.65;3.78;;;10.20;99.90;;;;;;5047699;28;20043;-65
2022/09/28 09:11:14;;;;;;;9.35;3.75;;;10.50;99.90;;;;;;5040896;28;20048;-65
2022/09/28 09:14:15;;;;;;;8.98;2.90;;;10.70;99.90;;;;;;5032801;28;20044;-65
2022/09/28 09:17:00;;;;;;;7.22;2.80;;;10.80;99.90;;;;;;5015100;28;20061;-65
2022/09/28 09:19:35;;;;;;;14.38;3.50;;;10.80;99.90;;;;;;5026905;28;20148;-66
2022/09/28 09:22:15;;;;;;;10.43;3.60;;;10.90;99.90;;;;;;4997564;28;20072;-65
2022/09/28 09:25:02;;;;;;;14.02;3.45;;;11.00;99.90;;;;;;5027523;28;20060;-65
2022/09/28 09:27:43;;;;;;;13.98;3.88;;;11.00;99.90;;;;;;5016130;28;20143;-65
2022/09/28 09:30:14;;;;;;;9.90;3.28;;;11.10;99.90;;;;;;5014228;28;20150;-66
2022/09/28 09:33:05;;;;;;;10.73;4.57;;;11.20;99.90;;;;;;5030572;28;20056;-65
2022/09/28 09:35:37;;;;;;;9.68;3.92;;;11.20;99.90;;;;;;5044722;28;20052;-65
2022/09/28 09:38:27;;;;;;;10.90;3.53;;;11.30;99.90;;;;;;5018121;28;20048;-65
2022/09/28 09:41:40;;;;;;;10.90;3.47;;;11.50;99.90;;;;;;5047887;28;20057;-65
2022/09/28 09:44:26;;;;;;;7.60;3.20;;;11.40;99.90;;;;;;5013235;28;20053;-64
2022/09/28 09:46:54;;;;;;;9.20;3.17;;;11.60;99.90;;;;;;5046297;28;20049;-66
2022/09/28 09:49:23;;;;;;;10.13;3.50;;;11.50;99.90;;;;;;5036415;28;20045;-64
2022/09/28 09:51:59;;;;;;;11.02;2.63;;;11.60;99.90;;;;;;5029179;28;20056;-65
2022/09/28 09:54:34;;;;;;;10.85;4.03;;;11.60;99.90;;;;;;5035727;28;20045;-67
2022/09/28 09:57:04;;;;;;;10.95;2.85;;;11.70;99.90;;;;;;5029681;28;20050;-64
2022/09/28 09:59:33;;;;;;;4.00;2.40;;;11.70;99.90;;;;;;5017677;28;20045;-65
2022/09/28 10:02:01;;;;;;;11.40;3.03;;;11.80;99.90;;;;;;5017689;28;20228;-65
2022/09/28 10:04:33;;;;;;;13.73;2.60;;;11.70;99.90;;;;;;5034081;28;20416;-65
2022/09/28 10:07:03;;;;;;;5.63;2.05;;;11.70;99.90;;;;;;5047241;28;20136;-64
2022/09/28 10:09:38;;;;;;;3.42;1.77;;;11.70;99.90;;;;;;5014389;28;20060;-64
2022/09/28 10:12:10;;;;;;;6.38;2.45;;;11.80;99.90;;;;;;5016581;28;20048;-65
2022/09/28 10:14:37;;;;;;;5.50;2.20;;;11.80;99.90;;;;;;5034778;28;20485;-65
2022/09/28 10:17:04;;;;;;;6.63;1.85;;;11.80;99.90;;;;;;5033258;28;20426;-65
2022/09/28 10:19:32;;;;;;;8.38;1.98;;;11.90;99.90;;;;;;5034498;28;20053;-65
2022/09/28 10:22:03;;;;;;;7.18;1.60;;;11.90;99.90;;;;;;5045683;28;20118;-64
2022/09/28 10:24:40;;;;;;;8.68;3.70;;;12.00;99.90;;;;;;5016631;28;20045;-64
2022/09/28 10:27:12;;;;;;;5.75;1.55;;;12.10;99.90;;;;;;5032780;28;20151;-64
2022/09/28 10:29:48;;;;;;;8.13;1.88;;;12.10;99.90;;;;;;5017092;28;20053;-64
2022/09/28 10:32:26;;;;;;;4.72;1.65;;;12.20;99.90;;;;;;5032757;28;20528;-64
2022/09/28 10:34:53;;;;;;;7.68;1.98;;;12.20;99.90;;;;;;5018259;28;20045;-66
2022/09/28 10:37:20;;;;;;;10.07;3.25;;;12.30;99.90;;;;;;5014111;28;20045;-65
2022/09/28 10:39:54;;;;;;;4.85;1.17;;;12.40;99.90;;;;;;5037347;28;20051;-65
2022/09/28 10:42:31;;;;;;;10.93;1.45;;;12.40;99.90;;;;;;5042349;28;20495;-65
2022/09/28 10:45:18;;;;;;;9.40;1.60;;;12.60;99.90;;;;;;5017182;28;20053;-65
2022/09/28 10:47:45;;;;;;;4.43;1.40;;;12.70;99.90;;;;;;5029630;28;20115;-65
2022/09/28 10:50:22;;;;;;;4.10;1.20;;;12.90;99.90;;;;;;5002621;28;20411;-65
2022/09/28 10:52:49;;;;;;;3.67;1.15;;;13.00;99.90;;;;;;4999653;28;20048;-65
2022/09/28 10:55:35;;;;;;;5.00;0.85;;;13.10;99.90;;;;;;5030225;28;20416;-65
2022/09/28 10:58:40;;;;;;;3.28;0.80;;;13.00;99.90;;;;;;5024447;28;20055;-65
2022/09/28 11:01:09;;;;;;;4.28;1.20;;;13.00;99.90;;;;;;5016897;28;20045;-65
2022/09/28 11:03:57;;;;;;;1.48;0.80;;;13.10;99.90;;;;;;5046741;28;20381;-65
2022/09/28 11:06:28;;;;;;;6.63;1.17;;;13.10;99.90;;;;;;5000662;28;20054;-64
2022/09/28 11:08:57;;;;;;;3.22;1.00;;;13.10;99.90;;;;;;5028561;28;20037;-65
2022/09/28 11:11:24;;;;;;;4.75;1.00;;;13.20;99.90;;;;;;5034036;28;20046;-65
2022/09/28 11:14:02;;;;;;;4.38;1.42;;;13.20;99.90;;;;;;5028459;28;20057;-65
2022/09/28 11:16:30;;;;;;;2.22;0.95;;;13.20;99.90;;;;;;5034079;28;20509;-65
2022/09/28 11:19:02;;;;;;;1.75;1.05;;;13.10;99.90;;;;;;5027821;28;20085;-65
2022/09/28 11:21:33;;;;;;;8.98;1.42;;;13.00;99.90;;;;;;5000046;28;20053;-65
2022/09/28 11:24:07;;;;;;;5.50;0.80;;;13.10;99.90;;;;;;5043662;28;20059;-65
2022/09/28 11:26:38;;;;;;;;;;;13.10;99.90;;;;;;5018189;28;20045;-65
2022/09/28 11:29:06;;;;;;;3.15;0.85;;;13.10;99.90;;;;;;5043242;28;20003;-65
2022/09/28 11:31:34;;;;;;;4.18;0.98;;;13.10;99.90;;;;;;5036167;28;20053;-66
2022/09/28 11:34:28;;;;;;;6.85;1.27;;;13.00;99.90;;;;;;5023910;28;20057;-65
2022/09/28 11:37:19;;;;;;;2.55;0.60;;;13.00;99.90;;;;;;5022063;28;20045;-65
2022/09/28 11:40:15;;;;;;;2.33;0.75;;;13.20;99.90;;;;;;5011943;28;20045;-65
2022/09/28 11:42:46;;;;;;;7.65;1.10;;;13.30;99.90;;;;;;5016343;28;20077;-65
2022/09/28 11:45:24;;;;;;;4.15;1.00;;;13.20;99.90;;;;;;5045844;28;20053;-64
2022/09/28 11:48:01;;;;;;;1.55;0.90;;;13.20;99.90;;;;;;5033657;28;20045;-65
2022/09/28 11:51:06;;;;;;;2.88;1.00;;;13.10;99.90;;;;;;5028138;28;20072;-66
2022/09/28 11:53:49;;;;;;;3.75;0.98;;;13.20;99.90;;;;;;4986682;28;20049;-65
2022/09/28 11:56:33;;;;;;;3.05;1.08;;;13.30;99.90;;;;;;5026904;28;20662;-65
2022/09/28 11:59:33;;;;;;;5.70;1.00;;;13.30;99.90;;;;;;5033558;28;20053;-64
2022/09/28 12:02:09;;;;;;;1.88;1.02;;;13.30;99.90;;;;;;5026346;28;20463;-65
2022/09/28 12:05:04;;;;;;;1.42;0.70;;;13.20;99.90;;;;;;5019732;28;20067;-65
2022/09/28 12:07:36;;;;;;;3.70;0.80;;;13.20;99.90;;;;;;5015463;28;20053;-64
2022/09/28 12:10:10;;;;;;;2.30;0.80;;;13.20;99.90;;;;;;5032703;28;20057;-65
2022/09/28 12:12:47;;;;;;;2.45;0.95;;;13.30;99.90;;;;;;5015582;28;20434;-65
2022/09/28 12:15:18;;;;;;;5.70;1.08;;;13.30;99.90;;;;;;5032685;28;20059;-64
2022/09/28 12:18:06;;;;;;;2.65;0.90;;;13.30;99.90;;;;;;5004894;28;20519;-64
2022/09/28 12:20:42;;;;;;;4.25;1.10;;;13.30;99.90;;;;;;5022763;28;20052;-64
2022/09/28 12:23:25;;;;;;;3.25;0.93;;;13.40;99.90;;;;;;5019496;28;20045;-65
2022/09/28 12:25:58;;;;;;;7.80;1.40;;;13.50;99.90;;;;;;5026385;28;20053;-65
2022/09/28 12:28:38;;;;;;;6.00;1.10;;;13.60;99.90;;;;;;5016212;28;20067;-65
2022/09/28 12:31:18;;;;;;;4.88;1.23;;;13.60;99.90;;;;;;5026507;28;20394;-65
2022/09/28 12:33:46;;;;;;;5.80;1.75;;;13.80;99.90;;;;;;5010926;28;20119;-65
2022/09/28 12:36:34;;;;;;;4.53;1.13;;;13.90;99.90;;;;;;5023957;28;20041;-65
2022/09/28 12:39:11;;;;;;;6.28;1.13;;;14.00;99.90;;;;;;5015124;28;20149;-65
2022/09/28 12:42:05;;;;;;;7.63;0.88;;;13.90;99.90;;;;;;5031207;28;20416;-65
2022/09/28 12:44:55;;;;;;;3.20;1.20;;;13.90;99.90;;;;;;5032161;28;20049;-64
2022/09/28 12:47:25;;;;;;;3.33;0.90;;;13.80;99.90;;;;;;5022274;28;20381;-65
2022/09/28 12:50:04;;;;;;;2.55;0.95;;;13.80;99.90;;;;;;5052058;28;20053;-65
2022/09/28 12:53:18;;;;;;;6.38;1.05;;;13.90;99.90;;;;;;5043147;28;20057;-65
2022/09/28 12:55:55;;;;;;;3.67;1.23;;;13.90;99.90;;;;;;5033097;28;20120;-64
2022/09/28 12:58:25;;;;;;;4.60;0.93;;;14.00;99.90;;;;;;5043285;28;20057;-65
2022/09/28 13:00:56;;;;;;;3.88;1.17;;;14.00;99.90;;;;;;5015598;28;20052;-65
2022/09/28 13:03:52;;;;;;;3.30;0.90;;;14.00;99.90;;;;;;5012997;28;20049;-65
2022/09/28 13:06:40;;;;;;;5.95;1.45;;;13.90;99.90;;;;;;5035298;28;20127;-65
2022/09/28 13:09:22;;;;;;;4.90;0.98;;;14.00;99.90;;;;;;5025751;28;20048;-64
2022/09/28 13:11:53;;;;;;;3.55;0.93;;;14.00;99.90;;;;;;5029723;28;20045;-65
2022/09/28 13:14:51;;;;;;;4.15;1.00;;;14.00;99.90;;;;;;5043397;28;20084;-65
2022/09/28 13:17:18;;;;;;;3.08;0.80;;;14.10;99.90;;;;;;5003220;28;20067;-65
2022/09/28 13:19:58;;;;;;;4.40;0.73;;;14.20;99.90;;;;;;5045936;28;20076;-65
2022/09/28 13:22:43;;;;;;;4.20;1.33;;;14.30;99.90;;;;;;4997515;28;20046;-65
2022/09/28 13:25:18;;;;;;;3.05;1.05;;;14.30;99.90;;;;;;5047817;28;20055;-64